Station: Nullarbor  

  Atmospheric Gas Attenuation - ITU Rec 676-11   ----------------- dB/100km -----------------
Date Time Temp RH % AH g/m3 Dew Point Wind Direction Speed kph Gust kph Barometer mB Rainfall Since 9am 24GHz 47GHz 76GHz 122GHz 134GHz 241GHz
08/05 12:00 16.7 62 8.81 9.4 11 17 1034.6 0 19.9 26.2 40.1 105.1 99.2 341.5
08/05 11:50 16.6 62 8.76 9.3 13 15 1034.6 0 19.8 26.1 40.0 104.7 98.7 339.6
08/05 11:40 16.5 63 8.85 9.4 11 13 1034.7 0 20.0 26.3 40.4 105.8 100.0 344.2
08/05 11:30 16.3 63 8.74 9.3 13 17 1034.9 0 19.7 26.2 40.1 104.9 98.8 340.1
08/05 11:20 16 64 8.72 9.2 13 15 1034.9 0 19.7 26.3 40.1 105.1 99.0 340.5
08/05 11:10 15.8 65 8.75 9.2 19 20 1034.9 0 19.8 26.4 40.4 105.7 99.6 342.7
08/05 11:00 15.8 65 8.75 9.2 15 20 1035.1 0 19.8 26.4 40.4 105.7 99.6 342.8
08/05 10:50 15.8 66 8.88 9.5 17 20 1035.1 0 20.1 26.6 40.9 107.1 101.3 348.8
08/05 10:40 15.5 66 8.72 9.2 17 19 1035.1 0 19.7 26.4 40.4 105.8 99.6 342.7
08/05 10:30 15.6 67 8.91 9.5 15 20 1035.2 0 20.1 26.7 41.1 107.7 102.0 351.1
08/05 10:20 15.5 67 8.86 9.4 17 19 1035.1 0 20.0 26.6 41.0 107.3 101.5 349.2
08/05 10:10 15.5 67 8.86 9.4 17 20 1035 0 20.0 26.6 41.0 107.2 101.4 349.1
08/05 10:00 15.6 66 8.78 9.3 17 20 1035.1 0 19.9 26.5 40.6 106.3 100.3 345.0
08/05 09:50 15.1 68 8.77 9.2 15 19 1034.9 0 19.9 26.6 40.8 106.8 100.8 346.7
08/05 09:40 15 68 8.72 9.1 17 20 1034.9 0 19.8 26.6 40.6 106.4 100.2 344.8
08/05 09:30 14.8 68 8.61 9 17 20 1035 0 19.5 26.4 40.3 105.5 99.0 340.6
08/05 09:20 14.9 71 9.05 9.7 15 17 1034.9 0 20.5 27.1 42.0 110.1 104.8 360.7
08/05 09:10 14.2 76 9.28 10 11 17 1034.8 0 21.0 27.7 43.4 113.6 108.8 374.8
08/05 09:00 13.9 76 9.11 9.7 11 13 1035 0 20.6 27.5 42.8 112.2 106.9 368.2
08/05 08:50 13.7 78 9.24 9.9 11 13 1034.8 0 20.9 27.8 43.5 113.9 109.0 375.3
08/05 08:40 13.5 78 9.12 9.7 9 11 1034.8 0 20.7 27.7 43.1 112.9 107.6 370.5
08/05 08:30 13.3 79 9.13 9.7 9 11 1034.7 0 20.7 27.7 43.2 113.2 108.0 371.9
08/05 08:20 13.1 83 9.47 10.3 7 7 1034.6 0 21.5 28.4 44.8 117.3 113.0 389.3
08/05 08:10 12.9 83 9.36 10.1 9 9 1034.5 0 21.2 28.2 44.4 116.4 111.8 384.9
08/05 08:00 12.9 82 9.24 9.9 7 9 1034.6 0 21.0 28.0 43.9 115.0 110.1 379.1
08/05 07:50 12.8 81 9.07 9.6 7 7 1034.4 0 20.6 27.8 43.2 113.3 107.9 371.3
08/05 07:40 12.8 80 8.96 9.4 7 9 1034.3 0 20.4 27.6 42.8 112.0 106.3 365.9
08/05 07:30 12.8 78 8.74 9.1 11 15 1034.2 0 19.9 27.2 41.8 109.6 103.3 355.3
08/05 07:20 12.9 78 8.79 9.2 9 9 1034 0 20.0 27.3 42.0 110.0 103.9 357.2
08/05 07:10 12.8 78 8.74 9.1 9 9 1034.1 0 19.9 27.2 41.8 109.5 103.3 355.3
08/05 07:00 13 78 8.85 9.3 9 11 1033.9 0 20.1 27.3 42.2 110.5 104.5 359.6
08/05 06:50 13.2 77 8.84 9.3 6 7 1033.7 0 20.1 27.2 42.0 110.1 104.1 358.2
08/05 06:40 13.4 76 8.84 9.3 11 13 1033.7 0 20.1 27.2 41.9 109.8 103.8 357.2
08/05 06:30 13.1 80 9.13 9.7 6 11 1033.8 0 20.7 27.8 43.3 113.4 108.2 372.6
08/05 06:20 13.1 79 9.02 9.5 7 7 1033.5 0 20.5 27.6 42.8 112.2 106.7 367.2
08/05 06:10 13.1 78 8.9 9.4 7 7 1033.5 0 20.2 27.4 42.3 110.8 105.0 361.4
08/05 06:00 13.2 77 8.84 9.3 7 9 1033.5 0 20.1 27.2 42.0 110.0 104.1 358.1
08/05 05:50 13.3 76 8.78 9.2 9 11 1033.5 0 20.0 27.1 41.7 109.2 103.1 354.8
08/05 05:40 13.5 75 8.77 9.2 13 13 1033.5 0 19.9 27.0 41.6 108.8 102.7 353.4
08/05 05:30 13.4 76 8.84 9.3 9 15 1033.5 0 20.1 27.2 41.9 109.8 103.8 357.2
08/05 05:20 13.4 76 8.84 9.3 9 11 1033.3 0 20.1 27.2 41.9 109.7 103.8 357.1
08/05 05:10 13.5 75 8.77 9.2 9 11 1033.2 0 19.9 27.0 41.5 108.8 102.7 353.3
08/05 05:00 13.8 74 8.82 9.3 9 11 1033.2 0 20.0 27.0 41.6 108.9 103.0 354.3
08/05 04:50 13.9 73 8.75 9.1 11 11 1033.2 0 19.9 26.9 41.3 108.0 101.9 350.6
08/05 04:40 13.8 75 8.94 9.5 11 11 1033.2 0 20.3 27.2 42.1 110.3 104.6 360.0
08/05 04:30 13.8 78 9.29 10 11 15 1033.3 0 21.0 27.8 43.5 114.1 109.4 376.8
08/05 04:20 13.9 77 9.23 9.9 9 9 1033.2 0 20.9 27.7 43.2 113.3 108.4 373.4
08/05 04:10 13.9 76 9.11 9.7 11 11 1033.2 0 20.6 27.5 42.7 112.0 106.8 367.6
08/05 04:00 13.9 75 8.99 9.5 11 15 1033.3 0 20.4 27.3 42.2 110.7 105.2 362.0
08/05 03:50 13.8 76 9.06 9.6 7 9 1033.3 0 20.5 27.4 42.6 111.6 106.3 365.8
08/05 03:40 13.8 76 9.06 9.6 9 9 1033.2 0 20.5 27.4 42.6 111.6 106.2 365.7
08/05 03:30 13.9 76 9.11 9.7 7 11 1033.3 0 20.6 27.5 42.7 112.0 106.8 367.7
08/05 03:20 13.8 76 9.06 9.6 7 9 1033.2 0 20.5 27.4 42.6 111.6 106.2 365.7
08/05 03:10 14 75 9.05 9.6 7 9 1033.2 0 20.5 27.3 42.4 111.2 105.8 364.3
08/05 03:00 14.2 74 9.04 9.6 9 11 1033.3 0 20.5 27.3 42.3 110.8 105.4 362.9
08/05 02:50 14.3 74 9.09 9.7 7 9 1033.1 0 20.6 27.3 42.4 111.2 106.0 364.8
08/05 02:40 14.5 72 8.96 9.5 13 13 1033 0 20.3 27.0 41.8 109.5 103.9 357.7
08/05 02:30 14.5 72 8.96 9.5 13 17 1033.2 0 20.3 27.0 41.8 109.5 103.9 357.8
08/05 02:20 14.1 71 8.62 8.9 11 11 1033 0 19.6 26.6 40.6 106.3 99.9 343.6
08/05 02:10 14.1 70 8.5 8.7 11 13 1033.1 0 19.3 26.4 40.1 105.1 98.3 338.0
08/05 02:00 14 69 8.32 8.4 11 15 1033.3 0 19.0 26.1 39.5 103.3 96.1 330.1
08/05 01:50 14.2 67 8.18 8.2 11 13 1033.2 0 18.7 25.8 38.8 101.5 94.0 322.8
08/05 01:40 14.3 66 8.11 8 11 13 1033.3 0 18.5 25.7 38.5 100.6 92.9 319.2
08/05 01:30 14.5 65 8.08 8 13 17 1033.4 0 18.4 25.6 38.3 100.1 92.3 317.1
08/05 01:20 14.7 63 7.93 7.7 17 19 1033.3 0 18.1 25.3 37.6 98.3 90.1 309.5
08/05 01:10 15 61 7.82 7.5 20 22 1033.3 0 17.9 25.1 37.0 96.7 88.4 303.3
08/05 01:00 15 62 7.95 7.8 20 26 1033.6 0 18.1 25.3 37.5 98.1 90.1 309.3
08/05 00:50 14.8 64 8.11 8.1 17 20 1033.5 0 18.5 25.6 38.3 100.0 92.4 317.3
08/05 00:40 15 62 7.95 7.8 17 20 1033.5 0 18.1 25.3 37.5 98.1 90.1 309.2
08/05 00:30 15 62 7.95 7.8 20 24 1033.7 0 18.1 25.3 37.5 98.1 90.1 309.3
08/05 00:20 14.9 64 8.16 8.2 17 19 1033.6 0 18.6 25.6 38.4 100.4 92.9 319.2
08/05 00:10 15 62 7.95 7.8 19 20 1033.6 0 18.1 25.3 37.5 98.1 90.1 309.3
08/05 00:00 15 64 8.21 8.3 19 24 1033.7 0 18.7 25.7 38.6 100.9 93.4 321.1
07/05 23:50 15.2 63 8.18 8.2 22 26 1033.7 0 18.6 25.6 38.3 100.3 92.8 318.9
07/05 23:40 15.2 63 8.18 8.2 22 28 1033.7 0 18.6 25.6 38.3 100.3 92.8 318.9
07/05 23:30 15 63 8.08 8 17 22 1033.9 0 18.4 25.5 38.1 99.5 91.8 315.2
07/05 23:20 14.8 65 8.23 8.3 13 15 1033.8 0 18.7 25.8 38.7 101.3 94.0 322.8
07/05 23:10 15 63 8.08 8 15 17 1033.8 0 18.4 25.5 38.1 99.5 91.8 315.2
07/05 23:00 14.8 64 8.11 8.1 15 17 1034 0 18.5 25.6 38.3 100.1 92.4 317.4
07/05 22:50 15 62 7.95 7.8 15 17 1033.9 0 18.1 25.3 37.5 98.1 90.1 309.3
07/05 22:40 15.1 62 8 7.9 19 24 1034 0 18.2 25.3 37.7 98.6 90.6 311.2
07/05 22:30 15.1 62 8 7.9 15 20 1034.1 0 18.2 25.3 37.7 98.6 90.6 311.3
07/05 22:20 15.1 64 8.26 8.3 15 17 1033.9 0 18.8 25.7 38.7 101.3 94.0 323.0
07/05 22:10 15.2 65 8.44 8.7 19 20 1033.9 0 19.2 26.0 39.4 103.0 96.2 330.8
07/05 22:00 15 67 8.59 8.9 13 17 1034 0 19.5 26.3 40.1 104.9 98.4 338.6
07/05 21:50 15 65 8.33 8.5 13 15 1033.8 0 18.9 25.9 39.0 102.1 95.0 326.6
07/05 21:40 14.8 65 8.23 8.3 11 13 1033.7 0 18.7 25.8 38.7 101.3 93.9 322.8
07/05 21:30 15 63 8.08 8 17 20 1033.8 0 18.4 25.5 38.1 99.5 91.8 315.2
07/05 21:20 15.2 62 8.05 8 17 19 1033.7 0 18.3 25.4 37.8 98.9 91.1 313.0
07/05 21:10 15.2 62 8.05 8 17 19 1033.7 0 18.3 25.4 37.8 98.9 91.1 313.0
07/05 21:00 15.2 65 8.44 8.7 17 22 1033.8 0 19.2 26.0 39.4 103.0 96.2 330.8
07/05 20:50 15.3 66 8.62 9 19 20 1033.7 0 19.5 26.3 40.0 104.8 98.4 338.6
07/05 20:40 15.3 67 8.75 9.2 17 20 1033.6 0 19.8 26.5 40.6 106.2 100.1 344.5
07/05 20:30 15.3 69 9.01 9.7 19 24 1033.7 0 20.4 26.9 41.6 109.0 103.6 356.6
07/05 20:20 15.1 73 9.42 10.3 19 20 1033.5 0 21.2 27.6 43.4 113.7 109.3 376.8
07/05 20:10 15.1 72 9.29 10.1 22 24 1033.5 0 21.0 27.4 42.8 112.3 107.6 370.6
07/05 20:00 15.1 73 9.42 10.3 20 32 1033.6 0 21.2 27.6 43.4 113.7 109.4 376.8
07/05 19:50 15.2 71 9.22 10 17 19 1033.4 0 20.8 27.3 42.5 111.4 106.5 366.8
07/05 19:40 15.4 69 9.07 9.7 24 28 1033.4 0 20.5 26.9 41.8 109.5 104.2 358.9
07/05 19:30 15.4 65 8.54 8.9 17 24 1033.3 0 19.4 26.1 39.7 103.8 97.2 334.4

Last Refresh: 08-May-2026 12:09:21

Bureau of Meteorology